Flight Track Log - Related Links

Times and Time Zones

All times are in EDT time to prevent confusion due to time zone crossing. See the N510SR flight status page for this flight to view local times or setup timezone preferences in your user account.

Time Position Orientation Groundspeed Altitude Reporting Facility
EDT Latitude Longitude Course Direction KTS MPH feet Rate Location/Type
Thu 03:43:00 PM 53.4509 -17.3069 274° West  Level Estimated
Thu 03:44:00 PM 53.4698 -17.5031 279° West  Level FlightAware Approximate
Thu 03:45:00 PM 53.4884 -17.6994 279° West  Level FlightAware Approximate
Thu 03:46:00 PM 53.5067 -17.8960 279° West  Level FlightAware Approximate
Thu 03:47:00 PM 53.5247 -18.0926 279° West  Level FlightAware Approximate
Thu 03:48:00 PM 53.5424 -18.2895 279° West  Level FlightAware Approximate
Thu 03:49:00 PM 53.5597 -18.4865 278° West  Level FlightAware Approximate
Thu 03:50:00 PM 53.5767 -18.6837 278° West  Level FlightAware Approximate
Thu 03:51:00 PM 53.5934 -18.8810 278° West  Level FlightAware Approximate
Thu 03:52:00 PM 53.6097 -19.0785 278° West  Level FlightAware Approximate
Thu 03:53:00 PM 53.6258 -19.2761 278° West  Level FlightAware Approximate
Thu 03:54:00 PM 53.6414 -19.4739 278° West  Level FlightAware Approximate
Thu 03:55:00 PM 53.6568 -19.6719 278° West  Level FlightAware Approximate
Thu 03:56:00 PM 53.6719 -19.8699 277° West  Level FlightAware Approximate
Thu 03:57:00 PM 53.6866 -20.0681 277° West  Level FlightAware Approximate
Thu 03:58:00 PM 53.7010 -20.2665 277° West  Level FlightAware Approximate
Thu 03:59:00 PM 53.7150 -20.4650 277° West  Level FlightAware Approximate
Thu 03:59:00 PM 54.0000 -20.0000 274° West 449 517 40,000  Level ETMS Enhanced Traffic Management System
Thu 04:00:00 PM 53.7288 -20.6636 277° West  Level FlightAware Approximate
Thu 04:01:00 PM 53.7422 -20.8623 277° West  Level FlightAware Approximate
Thu 04:02:00 PM 53.7553 -21.0612 276° West  Level FlightAware Approximate
Thu 04:03:00 PM 53.7680 -21.2602 276° West  Level FlightAware Approximate
Thu 04:04:00 PM 53.7804 -21.4593 276° West  Level FlightAware Approximate
Thu 04:05:00 PM 54.0586 -21.6990 273° West 449 517 40,000  Level FlightAware Transoceanic
Thu 04:06:00 PM 54.0643 -21.9117 273° West 449 517 40,000  Level FlightAware Transoceanic
Thu 04:07:00 PM 54.0695 -22.1245 272° West 449 517 40,000  Level FlightAware Transoceanic
Thu 04:08:00 PM 54.0744 -22.3372 272° West 449 517 40,000  Level FlightAware Transoceanic
Thu 04:09:00 PM 54.0789 -22.5501 272° West 449 517 40,000  Level FlightAware Transoceanic
Thu 04:10:00 PM 54.0831 -22.7630 272° West 449 517 40,000  Level FlightAware Transoceanic
Thu 04:11:00 PM 54.0868 -22.9759 272° West 449 517 40,000  Level FlightAware Transoceanic
Thu 04:12:00 PM 54.0902 -23.1889 271° West 449 517 40,000  Level FlightAware Transoceanic
Thu 04:13:00 PM 54.0932 -23.4019 271° West 449 517 40,000  Level FlightAware Transoceanic
Thu 04:14:00 PM 54.0959 -23.6149 271° West 449 517 40,000  Level FlightAware Transoceanic
Thu 04:15:00 PM 54.0981 -23.8279 271° West 449 517 40,000  Level FlightAware Transoceanic
Thu 04:16:00 PM 54.1000 -24.0410 271° West 449 517 40,000  Level FlightAware Transoceanic
Thu 04:17:00 PM 54.1015 -24.2541 271° West 449 517 40,000  Level FlightAware Transoceanic
Thu 04:18:00 PM 54.1026 -24.4672 270° West 449 517 40,000  Level FlightAware Transoceanic
Thu 04:19:00 PM 54.1034 -24.6803 270° West 449 517 40,000  Level FlightAware Transoceanic
Thu 04:20:00 PM 54.1038 -24.8934 270° West 449 517 40,000  Level FlightAware Transoceanic
Thu 04:21:00 PM 54.1038 -25.1066 270° West 449 517 40,000  Level FlightAware Transoceanic
Thu 04:22:00 PM 54.1034 -25.3197 270° West 449 517 40,000  Level FlightAware Transoceanic
Thu 04:23:00 PM 54.1026 -25.5328 270° West 449 517 40,000  Level FlightAware Transoceanic
Thu 04:24:00 PM 54.1015 -25.7459 269° West 449 517 40,000  Level FlightAware Transoceanic
Thu 04:25:00 PM 54.1000 -25.9590 269° West 449 517 40,000  Level FlightAware Transoceanic
Thu 04:26:00 PM 54.0981 -26.1721 269° West 449 517 40,000  Level FlightAware Transoceanic
Thu 04:27:00 PM 54.0959 -26.3851 269° West 449 517 40,000  Level FlightAware Transoceanic
Thu 04:28:00 PM 54.0932 -26.5981 269° West 449 517 40,000  Level FlightAware Transoceanic
Thu 04:29:00 PM 54.0902 -26.8111 269° West 449 517 40,000  Level FlightAware Transoceanic
Thu 04:30:00 PM 54.0868 -27.0241 268° West 449 517 40,000  Level FlightAware Transoceanic
Thu 04:31:00 PM 54.0831 -27.2370 268° West 449 517 40,000  Level FlightAware Transoceanic
Thu 04:32:00 PM 54.0789 -27.4499 268° West 449 517 40,000  Level FlightAware Transoceanic
Thu 04:33:00 PM 54.0744 -27.6628 268° West 449 517 40,000  Level FlightAware Transoceanic
Thu 04:34:00 PM 54.0695 -27.8755 268° West 449 517 40,000  Level FlightAware Transoceanic
Thu 04:35:00 PM 54.0643 -28.0883 267° West 449 517 40,000  Level FlightAware Transoceanic
Thu 04:36:00 PM 54.0586 -28.3010 267° West 449 517 40,000  Level FlightAware Transoceanic
Thu 04:37:00 PM 54.0526 -28.5136 267° West 449 517 40,000  Level FlightAware Transoceanic
Thu 04:38:00 PM 54.0462 -28.7262 267° West 449 517 40,000  Level FlightAware Transoceanic
Thu 04:39:00 PM 54.0394 -28.9387 267° West 449 517 40,000  Level FlightAware Transoceanic
Thu 04:40:00 PM 54.0323 -29.1511 267° West 449 517 40,000  Level FlightAware Transoceanic
Thu 04:41:00 PM 54.0248 -29.3634 266° West 449 517 40,000  Level FlightAware Transoceanic
Thu 04:42:00 PM 54.0169 -29.5757 266° West 449 517 40,000  Level FlightAware Transoceanic
Thu 04:43:00 PM 54.0086 -29.7879 266° West 449 517 40,000  Level FlightAware Transoceanic
Thu 04:44:00 PM 54.0005 -29.9887 266° West  Level FlightAware Approximate
Thu 04:45:00 PM 53.9919 -30.1895 266° West  Level FlightAware Approximate
Thu 04:46:00 PM 53.9896 -30.1778 264° West  Level FlightAware Approximate
Thu 04:47:00 PM 53.9776 -30.3780 264° West  Level FlightAware Approximate
Thu 04:48:00 PM 53.9653 -30.5781 264° West  Level FlightAware Approximate
Thu 04:49:00 PM 53.9526 -30.7780 264° West  Level FlightAware Approximate
Thu 04:50:00 PM 53.9396 -30.9779 264° West  Level FlightAware Approximate
Thu 04:50:00 PM 54.0000 -30.0000 265° West 425 489 40,000  Level ETMS Enhanced Traffic Management System
Thu 04:51:00 PM 53.9263 -31.1776 264° West  Level FlightAware Approximate
Thu 04:52:00 PM 53.9127 -31.3771 263° West  Level FlightAware Approximate
Thu 04:53:00 PM 53.8987 -31.5766 263° West  Level FlightAware Approximate
Thu 04:54:00 PM 53.8843 -31.7759 263° West  Level FlightAware Approximate
Thu 04:55:00 PM 53.8697 -31.9750 263° West  Level FlightAware Approximate
Thu 04:56:00 PM 53.8703 -31.9951 263° West 425 489 40,000  Level FlightAware Transoceanic
Thu 04:57:00 PM 53.8555 -32.1940 263° West 425 489 40,000  Level FlightAware Transoceanic
Thu 04:58:00 PM 53.8404 -32.3926 263° West 425 489 40,000  Level FlightAware Transoceanic
Thu 04:59:00 PM 53.8249 -32.5911 262° West 425 489 40,000  Level FlightAware Transoceanic
Thu 05:00:00 PM 53.8091 -32.7895 262° West 425 489 40,000  Level FlightAware Transoceanic
Thu 05:01:00 PM 53.7930 -32.9877 262° West 425 489 40,000  Level FlightAware Transoceanic
Thu 05:02:00 PM 53.7766 -33.1857 262° West 425 489 40,000  Level FlightAware Transoceanic
Thu 05:03:00 PM 53.7599 -33.3837 262° West 425 489 40,000  Level FlightAware Transoceanic
Thu 05:04:00 PM 53.7428 -33.5814 262° West 425 489 40,000  Level FlightAware Transoceanic
Thu 05:05:00 PM 53.7254 -33.7790 261° West 425 489 40,000  Level FlightAware Transoceanic
Thu 05:06:00 PM 53.7077 -33.9764 261° West 425 489 40,000  Level FlightAware Transoceanic
Thu 05:07:00 PM 53.6896 -34.1736 261° West 425 489 40,000  Level FlightAware Transoceanic
Thu 05:08:00 PM 53.6712 -34.3707 261° West 425 489 40,000  Level FlightAware Transoceanic
Thu 05:09:00 PM 53.6525 -34.5676 261° West 425 489 40,000  Level FlightAware Transoceanic
Thu 05:10:00 PM 53.6335 -34.7644 261° West 425 489 40,000  Level FlightAware Transoceanic
Thu 05:11:00 PM 53.6142 -34.9609 260° West 425 489 40,000  Level FlightAware Transoceanic
Thu 05:12:00 PM 53.5945 -35.1573 260° West 425 489 40,000  Level FlightAware Transoceanic
Thu 05:13:00 PM 53.5745 -35.3535 260° West 425 489 40,000  Level FlightAware Transoceanic
Thu 05:14:00 PM 53.5542 -35.5495 260° West 425 489 40,000  Level FlightAware Transoceanic
Thu 05:15:00 PM 53.5336 -35.7453 260° West 425 489 40,000  Level FlightAware Transoceanic
Thu 05:16:00 PM 53.5126 -35.9409 260° West 425 489 40,000  Level FlightAware Transoceanic
Thu 05:17:00 PM 53.4914 -36.1363 260° West 425 489 40,000  Level FlightAware Transoceanic
Thu 05:18:00 PM 53.4698 -36.3315 259° West 425 489 40,000  Level FlightAware Transoceanic
Thu 05:19:00 PM 53.4479 -36.5266 259° West 425 489 40,000  Level FlightAware Transoceanic
Thu 05:20:00 PM 53.4257 -36.7214 259° West 425 489 40,000  Level FlightAware Transoceanic
Thu 05:21:00 PM 53.4031 -36.9160 259° West 425 489 40,000  Level FlightAware Transoceanic
Thu 05:22:00 PM 53.3803 -37.1104 259° West 425 489 40,000  Level FlightAware Transoceanic
Thu 05:23:00 PM 53.3571 -37.3046 259° West 425 489 40,000  Level FlightAware Transoceanic
Thu 05:24:00 PM 53.3336 -37.4986 258° West 425 489 40,000  Level FlightAware Transoceanic
Thu 05:25:00 PM 53.3098 -37.6924 258° West 425 489 40,000  Level FlightAware Transoceanic
Thu 05:26:00 PM 53.2857 -37.8859 258° West 425 489 40,000  Level FlightAware Transoceanic
Thu 05:27:00 PM 53.2613 -38.0793 258° West 425 489 40,000  Level FlightAware Transoceanic
Thu 05:28:00 PM 53.2366 -38.2724 258° West 425 489 40,000  Level FlightAware Transoceanic
Thu 05:29:00 PM 53.2115 -38.4652 258° West 425 489 40,000  Level FlightAware Transoceanic
Thu 05:30:00 PM 53.1862 -38.6579 258° West 425 489 40,000  Level FlightAware Transoceanic
Thu 05:31:00 PM 53.1605 -38.8503 257° West 425 489 40,000  Level FlightAware Transoceanic
Thu 05:32:00 PM 53.1345 -39.0425 257° West 425 489 40,000  Level FlightAware Transoceanic
Thu 05:33:00 PM 53.1082 -39.2345 257° West 425 489 40,000  Level FlightAware Transoceanic
Thu 05:34:00 PM 53.0816 -39.4262 257° West 425 489 40,000  Level FlightAware Transoceanic
Thu 05:35:00 PM 53.0547 -39.6177 257° West 425 489 40,000  Level FlightAware Transoceanic
Thu 05:36:00 PM 53.0275 -39.8090 257° West 425 489 40,000  Level FlightAware Transoceanic
Thu 05:37:00 PM 53.0000 -40.0003 257° West  Level FlightAware Approximate
Thu 05:38:00 PM 53.0000 -40.0005 265° West  Level FlightAware Approximate
Thu 05:39:00 PM 52.9888 -40.1962 265° West  Level FlightAware Approximate
Thu 05:40:00 PM 52.9773 -40.3918 265° West  Level FlightAware Approximate
Thu 05:40:38 PM 53.0000 -40.0000 265° West 418 481 40,000  Level ETMS Enhanced Traffic Management System
Thu 05:41:00 PM 52.9655 -40.5873 264° West  Level FlightAware Approximate
Thu 05:42:00 PM 52.9534 -40.7827 264° West  Level FlightAware Approximate
Thu 05:43:00 PM 52.9410 -40.9780 264° West  Level FlightAware Approximate
Thu 05:44:00 PM 52.9282 -41.1732 264° West  Level FlightAware Approximate
Thu 05:45:00 PM 52.9151 -41.3682 264° West  Level FlightAware Approximate
Thu 05:46:00 PM 52.9036 -41.5360 263° West 418 481 40,000  Level FlightAware Transoceanic
Thu 05:47:00 PM 52.8901 -41.7275 263° West 418 481 40,000  Level FlightAware Transoceanic
Thu 05:48:00 PM 52.8764 -41.9189 263° West 418 481 40,000  Level FlightAware Transoceanic
Thu 05:49:00 PM 52.8623 -42.1101 263° West 418 481 40,000  Level FlightAware Transoceanic
Thu 05:50:00 PM 52.8480 -42.3013 263° West 418 481 40,000  Level FlightAware Transoceanic
Thu 05:51:00 PM 52.8333 -42.4922 263° West 418 481 40,000  Level FlightAware Transoceanic
Thu 05:52:00 PM 52.8183 -42.6831 263° West 418 481 40,000  Level FlightAware Transoceanic
Thu 05:53:00 PM 52.8031 -42.8739 262° West 418 481 40,000  Level FlightAware Transoceanic
Thu 05:54:00 PM 52.7875 -43.0645 262° West 418 481 40,000  Level FlightAware Transoceanic
Thu 05:55:00 PM 52.7716 -43.2549 262° West 418 481 40,000  Level FlightAware Transoceanic
Thu 05:56:00 PM 52.7554 -43.4453 262° West 418 481 40,000  Level FlightAware Transoceanic
Thu 05:57:00 PM 52.7389 -43.6354 262° West 418 481 40,000  Level FlightAware Transoceanic
Thu 05:58:00 PM 52.7221 -43.8255 262° West 418 481 40,000  Level FlightAware Transoceanic
Thu 05:59:00 PM 52.7049 -44.0154 261° West 418 481 40,000  Level FlightAware Transoceanic
Thu 06:00:00 PM 52.6875 -44.2051 261° West 418 481 40,000  Level FlightAware Transoceanic
Thu 06:01:00 PM 52.6698 -44.3947 261° West 418 481 40,000  Level FlightAware Transoceanic
Thu 06:02:00 PM 52.6518 -44.5841 261° West 418 481 40,000  Level FlightAware Transoceanic
Thu 06:03:00 PM 52.6335 -44.7734 261° West 418 481 40,000  Level FlightAware Transoceanic
Thu 06:04:00 PM 52.6149 -44.9625 261° West 418 481 40,000  Level FlightAware Transoceanic
Thu 06:05:00 PM 52.5959 -45.1515 261° West 418 481 40,000  Level FlightAware Transoceanic
Thu 06:06:00 PM 52.5767 -45.3402 260° West 418 481 40,000  Level FlightAware Transoceanic
Thu 06:07:00 PM 52.5572 -45.5289 260° West 418 481 40,000  Level FlightAware Transoceanic
Thu 06:08:00 PM 52.5374 -45.7173 260° West 418 481 40,000  Level FlightAware Transoceanic
Thu 06:09:00 PM 52.5173 -45.9056 260° West 418 481 40,000  Level FlightAware Transoceanic
Thu 06:10:00 PM 52.4968 -46.0937 260° West 418 481 40,000  Level FlightAware Transoceanic
Thu 06:11:00 PM 52.4761 -46.2817 260° West 418 481 40,000  Level FlightAware Transoceanic
Thu 06:12:00 PM 52.4551 -46.4694 260° West 418 481 40,000  Level FlightAware Transoceanic
Thu 06:13:00 PM 52.4338 -46.6570 259° West 418 481 40,000  Level FlightAware Transoceanic
Thu 06:14:00 PM 52.4122 -46.8444 259° West 418 481 40,000  Level FlightAware Transoceanic
Thu 06:15:00 PM 52.3903 -47.0316 259° West 418 481 40,000  Level FlightAware Transoceanic
Thu 06:16:00 PM 52.3681 -47.2186 259° West 418 481 40,000  Level FlightAware Transoceanic
Thu 06:17:00 PM 52.3456 -47.4054 259° West 418 481 40,000  Level FlightAware Transoceanic
Thu 06:18:00 PM 52.3228 -47.5920 259° West 418 481 40,000  Level FlightAware Transoceanic
Thu 06:19:00 PM 52.2997 -47.7785 258° West 418 481 40,000  Level FlightAware Transoceanic
Thu 06:20:00 PM 52.2763 -47.9647 258° West 418 481 40,000  Level FlightAware Transoceanic
Thu 06:21:00 PM 52.2527 -48.1508 258° West 418 481 40,000  Level FlightAware Transoceanic
Thu 06:22:00 PM 52.2287 -48.3367 258° West 418 481 40,000  Level FlightAware Transoceanic
Thu 06:23:00 PM 52.2044 -48.5223 258° West 418 481 40,000  Level FlightAware Transoceanic
Thu 06:24:00 PM 52.1799 -48.7077 258° West 418 481 40,000  Level FlightAware Transoceanic
Thu 06:25:00 PM 52.1551 -48.8930 258° West 418 481 40,000  Level FlightAware Transoceanic
Thu 06:26:00 PM 52.1300 -49.0780 257° West 418 481 40,000  Level FlightAware Transoceanic
Thu 06:27:00 PM 52.1045 -49.2628 257° West 418 481 40,000  Level FlightAware Transoceanic
Thu 06:28:00 PM 52.0788 -49.4475 257° West 418 481 40,000  Level FlightAware Transoceanic
Thu 06:29:00 PM 52.0528 -49.6319 257° West 418 481 40,000  Level FlightAware Transoceanic
Thu 06:30:00 PM 52.0266 -49.8160 257° West 418 481 40,000 741 Level FlightAware Transoceanic
Thu 06:30:21 PM 52.0000 -50.0000 250° West 403 464 41,000 880 Climbing ETMS Enhanced Traffic Management System
Thu 06:31:00 PM 51.9995 -50.0032 257° West  Level FlightAware Approximate
Thu 06:31:15 PM 51.9333 -50.1667 249° West 460 529 41,100  Level Gander Center
Thu 06:32:00 PM 51.9986 -50.0062 251° West  Level FlightAware Approximate
Thu 06:32:15 PM 51.9000 -50.3333 252° West 450 518 41,100  Level Gander Center
Thu 06:33:00 PM 51.9590 -50.1872 251° West  Level FlightAware Approximate
Thu 06:33:15 PM 51.8500 -50.5333 248° West 450 518 41,400  Level Gander Center
Thu 06:34:00 PM 51.9191 -50.3679 250° West  Level FlightAware Approximate
Thu 06:34:15 PM 51.8000 -50.7333 248° West 460 529 42,200  Level Gander Center
Thu 06:35:00 PM 51.8789 -50.5482 250° West  Level FlightAware Approximate
Thu 06:35:15 PM 51.7667 -50.9167 254° West 450 518 42,700  Level Gander Center
Thu 06:36:00 PM 51.6911 -51.3594 249° West 403 464 41,000 300 Descending FlightAware Transoceanic
Thu 06:36:15 PM 51.7167 -51.0833 244° Southwest 450 518 43,000 1,680 Climbing Gander Center
Thu 06:37:15 PM 51.6667 -51.2833 248° West 450 518 43,100 50 Climbing Gander Center
Thu 06:38:15 PM 51.6167 -51.4667 246° West 460 529 43,100  Level Gander Center
Thu 06:39:15 PM 51.5667 -51.6667 248° West 470 541 43,100  Level Gander Center
Thu 06:40:15 PM 51.5167 -51.8333 244° Southwest 470 541 43,100  Level Gander Center
Thu 06:41:15 PM 51.4667 -52.0333 248° West 470 541 43,100  Level Gander Center
Thu 06:42:15 PM 51.4167 -52.2333 248° West 470 541 43,100  Level Gander Center
Thu 06:42:59 PM 51.3667 -52.3833 242° Southwest 470 541 43,100  Level Moncton Center
Thu 06:43:59 PM 51.3000 -52.5667 240° Southwest 460 529 43,100  Level Moncton Center
Thu 06:44:59 PM 51.2500 -52.7667 248° West 480 552 43,100  Level Moncton Center
Thu 06:46:00 PM 51.2000 -52.9333 244° Southwest 470 541 43,100  Level Moncton Center
Thu 06:47:15 PM 51.1333 -53.1667 246° West 470 541 43,100  Level Gander Center
Thu 06:48:15 PM 51.0667 -53.3667 242° Southwest 470 541 43,100  Level Gander Center
Thu 06:49:15 PM 51.0167 -53.5333 245° Southwest 470 541 43,100  Level Gander Center
Thu 06:50:00 PM 50.9667 -53.6833 242° Southwest 470 541 43,100  Level Moncton Center
Thu 06:51:15 PM 50.9000 -53.9333 247° West 470 541 43,100  Level Gander Center
Thu 06:52:15 PM 50.8500 -54.1167 247° West 470 541 43,100  Level Gander Center
Thu 06:53:00 PM 50.8167 -54.2500 248° West 470 541 43,100  Level Moncton Center
Thu 06:54:00 PM 50.7500 -54.4333 240° Southwest 470 541 43,100  Level Moncton Center
Thu 06:55:00 PM 50.7000 -54.6333 249° West 470 541 43,100  Level Moncton Center
Thu 06:56:00 PM 50.6333 -54.8333 242° Southwest 470 541 43,100  Level Moncton Center
Thu 06:57:15 PM 50.5667 -55.0333 242° Southwest 470 541 43,100  Level Gander Center
Thu 06:58:15 PM 50.5167 -55.2333 249° West 470 541 43,100  Level Gander Center
Thu 06:59:15 PM 50.4333 -55.4167 235° Southwest 470 541 43,100  Level Gander Center
Thu 07:00:15 PM 50.3833 -55.5833 245° Southwest 470 541 43,100  Level Gander Center
Thu 07:01:15 PM 50.3167 -55.7833 242° Southwest 470 541 43,100  Level Gander Center
Thu 07:02:15 PM 50.2667 -55.9667 247° West 470 541 43,100  Level Gander Center
Thu 07:03:15 PM 50.2000 -56.1667 243° Southwest 470 541 43,100  Level Gander Center
Thu 07:04:15 PM 50.1500 -56.3167 243° Southwest 470 541 43,100  Level Gander Center
Thu 07:05:00 PM 50.1167 -56.4500 249° West 470 541 43,100  Level Moncton Center
Thu 07:06:15 PM 50.0333 -56.7000 243° Southwest 470 541 43,100  Level Gander Center
Thu 07:07:15 PM 49.9500 -56.8833 235° Southwest 480 552 43,100  Level Gander Center
Thu 07:08:15 PM 49.9000 -57.0500 245° Southwest 470 541 43,100  Level Gander Center
Thu 07:09:15 PM 49.8500 -57.2333 247° West 470 541 43,100  Level Gander Center
Thu 07:10:15 PM 49.7667 -57.4167 235° Southwest 470 541 43,100  Level Gander Center
Thu 07:11:15 PM 49.7167 -57.5833 245° Southwest 470 541 43,100  Level Gander Center
Thu 07:12:15 PM 49.6500 -57.7667 241° Southwest 470 541 43,100  Level Gander Center
Thu 07:13:15 PM 49.5833 -57.9500 241° Southwest 470 541 43,100  Level Gander Center
Thu 07:14:15 PM 49.5167 -58.1333 241° Southwest 470 541 43,100  Level Gander Center
Thu 07:15:00 PM 49.4833 -58.2667 249° West 470 541 43,100  Level Moncton Center
Thu 07:16:00 PM 49.4167 -58.4167 236° Southwest 470 541 43,100  Level Moncton Center
Thu 07:17:15 PM 49.3333 -58.6667 243° Southwest 470 541 43,100  Level Gander Center
Thu 07:18:00 PM 49.2833 -58.7667 233° Southwest 470 541 43,100  Level Moncton Center
Thu 07:19:00 PM 49.2167 -58.9667 243° Southwest 470 541 43,100  Level Moncton Center
Thu 07:20:15 PM 49.1500 -59.1833 245° Southwest 480 552 43,100  Level Gander Center
Thu 07:21:00 PM 49.1000 -59.3333 243° Southwest 480 552 43,100  Level Moncton Center
Thu 07:22:00 PM 49.0167 -59.5000 233° Southwest 480 552 43,100  Level Moncton Center
Thu 07:23:00 PM 48.9667 -59.6833 247° West 480 552 43,100  Level Moncton Center
Thu 07:24:00 PM 48.9000 -59.8333 236° Southwest 480 552 43,100  Level Moncton Center
Thu 07:25:15 PM 48.8167 -60.0667 242° Southwest 480 552 43,100  Level Gander Center
Thu 07:26:00 PM 48.7667 -60.2000 240° Southwest 480 552 43,100  Level Moncton Center
Thu 07:27:00 PM 48.6833 -60.3667 233° Southwest 480 552 43,100  Level Moncton Center
Thu 07:28:00 PM 48.6167 -60.5500 241° Southwest 480 552 43,100  Level Moncton Center
Thu 07:29:00 PM 48.5667 -60.7333 248° West 480 552 43,100  Level Moncton Center
Thu 07:30:00 PM 48.4833 -60.8833 230° Southwest 490 564 43,100  Level Moncton Center
Thu 07:31:00 PM 48.4167 -61.0667 241° Southwest 480 552 43,100  Level Moncton Center
Thu 07:32:00 PM 48.3500 -61.2500 241° Southwest 480 552 43,100  Level Moncton Center
Thu 07:33:00 PM 48.2833 -61.4333 241° Southwest 480 552 43,100  Level Moncton Center
Thu 07:34:00 PM 48.2167 -61.5833 236° Southwest 480 552 43,100  Level Moncton Center
Thu 07:35:00 PM 48.1333 -61.7667 236° Southwest 480 552 43,100  Level Moncton Center
Thu 07:36:15 PM 48.0500 -61.9833 240° Southwest 480 552 43,100  Level Gander Center
Thu 07:37:15 PM 47.9833 -62.1500 239° Southwest 490 564 43,100  Level Gander Center
Thu 07:38:15 PM 47.9167 -62.3333 242° Southwest 480 552 43,100  Level Gander Center
Thu 07:39:15 PM 47.8333 -62.4833 230° Southwest 480 552 43,100  Level Gander Center
Thu 07:40:15 PM 47.7667 -62.6667 242° Southwest 480 552 43,100  Level Gander Center
Thu 07:41:00 PM 47.7167 -62.7833 238° Southwest 480 552 43,100  Level Moncton Center
Thu 07:42:00 PM 47.6500 -62.9500 239° Southwest 480 552 43,100  Level Moncton Center
Thu 07:43:00 PM 47.5833 -63.1000 237° Southwest 470 541 43,100  Level Moncton Center
Thu 07:44:00 PM 47.5167 -63.2833 242° Southwest 470 541 43,100  Level Moncton Center
Thu 07:45:00 PM 47.4333 -63.4500 234° Southwest 470 541 43,100  Level Moncton Center
Thu 07:46:00 PM 47.3667 -63.6000 237° Southwest 470 541 43,100  Level Moncton Center
Thu 07:47:00 PM 47.3000 -63.7500 237° Southwest 470 541 43,100  Level Moncton Center
Thu 07:48:00 PM 47.2167 -63.9333 236° Southwest 480 552 43,100  Level Moncton Center
Thu 07:49:00 PM 47.1500 -64.1000 240° Southwest 470 541 43,100  Level Moncton Center
Thu 07:50:00 PM 47.0833 -64.2667 240° Southwest 480 552 43,100  Level Moncton Center
Thu 07:51:00 PM 47.0000 -64.4167 231° Southwest 480 552 43,100  Level Moncton Center
Thu 07:52:00 PM 46.9333 -64.6000 242° Southwest 470 541 43,100  Level Moncton Center
Thu 07:53:00 PM 46.8667 -64.7333 234° Southwest 480 552 43,100  Level Moncton Center
Thu 07:53:59 PM 46.7833 -64.9167 236° Southwest 470 541 43,100  Level Moncton Center
Thu 07:54:59 PM 46.7167 -65.0500 234° Southwest 470 541 43,100  Level Moncton Center
Thu 07:56:00 PM 46.6500 -65.2333 242° Southwest 470 541 43,100  Level Moncton Center
Thu 07:57:00 PM 46.5500 -65.4000 229° Southwest 470 541 43,100  Level Moncton Center
Thu 07:58:00 PM 46.4833 -65.5333 234° Southwest 480 552 43,100  Level Moncton Center
Thu 07:59:00 PM 46.4000 -65.7000 234° Southwest 480 552 43,100  Level Moncton Center
Thu 08:00:00 PM 46.3333 -65.8500 237° Southwest 480 552 43,100  Level Moncton Center
Thu 08:01:00 PM 46.2667 -66.0167 240° Southwest 470 541 43,100  Level Moncton Center
Thu 08:02:00 PM 46.2000 -66.1833 240° Southwest 470 541 43,100  Level Moncton Center
Thu 08:03:00 PM 46.1167 -66.3333 231° Southwest 470 541 43,100  Level Moncton Center
Thu 08:04:00 PM 46.0333 -66.5000 234° Southwest 470 541 43,100  Level Moncton Center
Thu 08:05:00 PM 45.9500 -66.6667 234° Southwest 470 541 43,100  Level Moncton Center
Thu 08:06:00 PM 45.8833 -66.8000 234° Southwest 470 541 43,100  Level Moncton Center
Thu 08:07:00 PM 45.8167 -66.9667 240° Southwest 470 541 43,100  Level Moncton Center
Thu 08:08:00 PM 45.7500 -67.1000 234° Southwest 470 541 43,100  Level Moncton Center
Thu 08:09:00 PM 45.6667 -67.2500 232° Southwest 470 541 43,100  Level Moncton Center
Thu 08:10:00 PM 45.5833 -67.4167 234° Southwest 470 541 43,100  Level Moncton Center
Thu 08:11:00 PM 45.5167 -67.5500 235° Southwest 470 541 43,100  Level Moncton Center
Thu 08:12:00 PM 45.4333 -67.7167 235° Southwest 480 552 43,100  Level Moncton Center
Thu 08:13:00 PM 45.3500 -67.8667 232° Southwest 470 541 43,100  Level Moncton Center
Thu 08:14:00 PM 45.2833 -68.0167 238° Southwest 470 541 43,100  Level Moncton Center
Thu 08:15:00 PM 45.2000 -68.1667 232° Southwest 470 541 43,100  Level Moncton Center
Thu 08:16:00 PM 45.1167 -68.3167 232° Southwest 470 541 43,100  Level Moncton Center
Thu 08:17:17 PM 45.0500 -68.4850 241° Southwest 477 549 43,100  Level Boston Center
Thu 08:18:18 PM 44.9717 -68.6342 233° Southwest 477 549 43,100  Level Boston Center
Thu 08:19:18 PM 44.8950 -68.7800 233° Southwest 477 549 43,100  Level Boston Center
Thu 08:20:18 PM 44.8228 -68.9339 237° Southwest 477 549 43,100  Level Boston Center
Thu 08:21:16 PM 44.7586 -69.0897 240° Southwest 472 543 43,100  Level Boston Center
Thu 08:22:17 PM 44.6942 -69.2453 240° Southwest 472 543 43,100  Level Boston Center
Thu 08:23:16 PM 44.6258 -69.4181 241° Southwest 467 537 43,100  Level Boston Center
Thu 08:24:17 PM 44.5633 -69.5758 241° Southwest 467 537 43,100  Level Boston Center
Thu 08:25:18 PM 44.5025 -69.7303 241° Southwest 467 537 43,100  Level Boston Center
Thu 08:26:17 PM 44.4414 -69.8842 241° Southwest 467 537 43,100  Level Boston Center
Thu 08:27:18 PM 44.3781 -70.0408 241° Southwest 467 537 43,100  Level Boston Center
Thu 08:28:16 PM 44.3164 -70.1914 240° Southwest 462 532 43,100  Level Boston Center
Thu 08:29:17 PM 44.2506 -70.3475 240° Southwest 462 532 43,100  Level Boston Center
Thu 08:30:16 PM 44.1967 -70.4825 241° Southwest 462 532 43,100  Level Boston Center
Thu 08:31:17 PM 44.1306 -70.6381 239° Southwest 462 532 43,100  Level Boston Center
Thu 08:32:17 PM 44.0683 -70.7903 240° Southwest 468 539 43,100  Level Boston Center
Thu 08:33:18 PM 44.0056 -70.9419 240° Southwest 461 531 43,100  Level Boston Center
Thu 08:34:16 PM 43.9408 -71.0908 239° Southwest 461 531 43,100 -305 Level Boston Center
Thu 08:35:16 PM 43.8781 -71.2419 240° Southwest 461 531 42,500 -1,100 Descending Boston Center
Thu 08:36:16 PM 43.8128 -71.3986 240° Southwest 461 531 40,900 -1,488 Descending Boston Center
Thu 08:37:17 PM 43.7494 -71.5492 240° Southwest 461 531 39,500 -1,426 Descending Boston Center
Thu 08:38:18 PM 43.6839 -71.7022 239° Southwest 461 531 38,000 -1,513 Descending Boston Center
Thu 08:39:16 PM 43.6181 -71.8522 239° Southwest 466 536 36,500 -1,513 Descending Boston Center
Thu 08:40:17 PM 43.5500 -72.0075 239° Southwest 466 536 35,000 -1,475 Descending Boston Center
Thu 08:41:18 PM 43.4839 -72.1597 239° Southwest 466 536 33,500 -1,513 Descending Boston Center
Thu 08:42:16 PM 43.4172 -72.3172 240° Southwest 466 536 32,000 -1,475 Descending Boston Center
Thu 08:43:16 PM 43.3486 -72.4744 239° Southwest 472 543 30,600 -1,400 Descending Boston Center
Thu 08:44:16 PM 43.2775 -72.6311 238° Southwest 477 549 29,200 -1,339 Descending Boston Center
Thu 08:45:17 PM 43.2086 -72.7875 239° Southwest 477 549 27,900 -1,377 Descending Boston Center
Thu 08:46:18 PM 43.1328 -72.9550 238° Southwest 477 549 26,400 -1,438 Descending Boston Center
Thu 08:47:18 PM 43.0758 -73.0881 240° Southwest 472 543 25,000 -2,118 Descending Boston Center
Thu 08:48:17 PM 43.0019 -73.2464 237° Southwest 472 543 22,200 -2,118 Descending Boston Center
Thu 08:49:17 PM 42.9425 -73.3703 237° Southwest 460 529 20,800 -1,438 Descending Boston Center
Thu 08:50:18 PM 42.8789 -73.5111 238° Southwest 447 514 19,300 -1,563 Descending Boston Center
Thu 08:51:16 PM 42.8150 -73.6542 239° Southwest 423 487 17,700 -1,576 Descending Boston Center
Thu 08:52:16 PM 42.7489 -73.7803 235° Southwest 416 479 16,200 -1,488 Descending Boston Center
Thu 08:53:17 PM 42.6561 -73.8742 217° Southwest 407 468 14,700 -1,041 Descending Boston Center
Thu 08:54:17 PM 42.5678 -73.9342 207° Southwest 401 461 14,100 -298 Descending Boston Center
Thu 08:55:18 PM 42.4603 -74.0161 209° Southwest 401 461 14,100 -248 Level Boston Center
Thu 08:56:18 PM 42.3678 -74.0783 206° Southwest 407 468 13,600 -712 Descending Boston Center
Thu 08:57:16 PM 42.2542 -74.1400 202° Southwest 407 468 12,700 -800 Descending Boston Center
Thu 08:58:18 PM 42.1639 -74.1906 203° Southwest 397 457 12,000 -787 Descending Boston Center
Thu 08:59:18 PM 42.0525 -74.2492 201° Southwest 392 451 11,100 -712 Descending Boston Center
Thu 09:00:16 PM 41.9767 -74.2917 203° Southwest 359 413 10,600 -610 Descending Boston Center
Thu 09:01:16 PM 41.8906 -74.3364 201° Southwest 316 364 9,900 -595 Descending Boston Center
Thu 09:02:17 PM 41.8211 -74.3761 203° Southwest 309 356 9,400 -595 Descending Boston Center
Thu 09:03:17 PM 41.7369 -74.4181 200° South 309 356 8,700 -595 Descending Boston Center
Thu 09:04:18 PM 41.6675 -74.4578 203° Southwest 304 350 8,200 -555 Descending Boston Center
Thu 09:05:16 PM 41.5833 -74.5022 202° Southwest 298 343 7,600 -555 Descending Boston Center
Thu 09:06:17 PM 41.5161 -74.5361 201° Southwest 298 343 7,100 -361 Descending Boston Center
Thu 09:08:02 PM 41.3667 -74.6000 198° South 292 336 6,600 -364 Descending New York TRACON
Thu 09:09:02 PM 41.3000 -74.6333 201° Southwest 290 334 6,100 -571 Descending New York TRACON
Thu 09:10:08 PM 41.2167 -74.6500 189° South 284 327 5,400 -762 Descending New York TRACON
Thu 09:11:08 PM 41.1500 -74.6000 151° Southeast 282 325 4,500 -650 Descending New York TRACON
Thu 09:12:08 PM 41.1000 -74.5167 129° Southeast 280 322 4,100 -526 Descending New York TRACON
Thu 09:13:02 PM 41.0500 -74.4500 135° Southeast 269 310 3,500 -526 Descending New York TRACON
Thu 09:14:02 PM 41.0000 -74.3833 135° Southeast 260 299 3,100 -476 Descending New York TRACON
Thu 09:15:08 PM 40.9500 -74.3167 135° Southeast 247 284 2,500 -476 Descending New York TRACON
Thu 09:16:08 PM 40.9000 -74.2500 135° Southeast 221 254 2,100 -250 Descending New York TRACON
Thu 09:17:08 PM 40.8500 -74.2000 143° Southeast 205 236 2,000 -150 Descending New York TRACON
Thu 09:18:08 PM 40.8333 -74.1500 114° Southeast 166 191 1,800 -474 Descending New York TRACON
Thu 09:19:02 PM 40.8167 -74.1000 114° Southeast 164 189 1,100 -778 Descending New York TRACON
Thu 09:21:00 PM 40.8500 -74.0500 114° Southeast  Level FlightAware Approximate
Thu 09:28:00 PM 40.8501 -74.0608 114° Southeast  Level Estimated
Thu 09:29:00 PM 40.8501 -74.0608 114° Southeast  Level Estimated

Login

Don't have an account? Register now (free) for customized features, flight alerts, and more!